Battle Creek, Michigan
Current Conditions -  °F | °C
As of 8:53 AM on Wednesday 22 Oct 2014 (Local Time) from KBTL Reporting Station
Overcast Overcast  
Wind Chill: 36°   Ceiling: 1600
Heat Index: 39°   Visibility: 10mi
Dew Point: 35°   Wind: 5mph
Humidity: 86%   Direction: 30°NNE
Pressure: 30.34"   Gusts: NA
Location:  42.32°N, 85.18°W
Report Text: KBTL 221253Z 03004KT 10SM OVC016 04/02 A3034 RMK AO2 SLP282 T00390017
Loading
Personal Weather Stations






























Interactive Weather Map New forecast layout! Learn more

10-Day Weather Forecast

Advertisements
Track Severe Weather on mobile